sensor_id;sensor_type;location;lat;lon;timestamp;temperature;humidity
20590;DHT22;10453;50.810;12.540;2024-01-30T00:01:22;0.30;99.90
20590;DHT22;10453;50.810;12.540;2024-01-30T00:05:40;0.20;99.90
20590;DHT22;10453;50.810;12.540;2024-01-30T00:09:57;0.20;99.90
20590;DHT22;10453;50.810;12.540;2024-01-30T00:14:14;0.00;99.90
20590;DHT22;10453;50.810;12.540;2024-01-30T00:18:37;0.00;99.90
20590;DHT22;10453;50.810;12.540;2024-01-30T00:22:56;0.10;99.90
20590;DHT22;10453;50.810;12.540;2024-01-30T00:27:13;0.20;99.90
20590;DHT22;10453;50.810;12.540;2024-01-30T00:31:31;0.10;99.90
20590;DHT22;10453;50.810;12.540;2024-01-30T00:35:49;0.50;99.90
20590;DHT22;10453;50.810;12.540;2024-01-30T00:40:07;1.00;99.90
20590;DHT22;10453;50.810;12.540;2024-01-30T00:44:27;0.90;99.90
20590;DHT22;10453;50.810;12.540;2024-01-30T00:48:44;0.80;99.90
20590;DHT22;10453;50.810;12.540;2024-01-30T00:53:02;1.00;99.90
20590;DHT22;10453;50.810;12.540;2024-01-30T00:57:19;0.80;99.90
20590;DHT22;10453;50.810;12.540;2024-01-30T01:01:36;0.70;99.90
20590;DHT22;10453;50.810;12.540;2024-01-30T01:05:54;0.60;99.90
20590;DHT22;10453;50.810;12.540;2024-01-30T01:10:11;0.60;99.90
20590;DHT22;10453;50.810;12.540;2024-01-30T01:14:30;0.60;99.90
20590;DHT22;10453;50.810;12.540;2024-01-30T01:18:48;0.80;99.90
20590;DHT22;10453;50.810;12.540;2024-01-30T01:23:05;1.00;99.90
20590;DHT22;10453;50.810;12.540;2024-01-30T01:27:22;1.00;99.90
20590;DHT22;10453;50.810;12.540;2024-01-30T01:31:39;0.90;99.90
20590;DHT22;10453;50.810;12.540;2024-01-30T01:36:01;0.80;99.90
20590;DHT22;10453;50.810;12.540;2024-01-30T01:40:22;0.40;99.90
20590;DHT22;10453;50.810;12.540;2024-01-30T01:44:39;0.40;99.90
20590;DHT22;10453;50.810;12.540;2024-01-30T01:48:57;0.40;99.90
20590;DHT22;10453;50.810;12.540;2024-01-30T01:53:15;1.30;99.90
20590;DHT22;10453;50.810;12.540;2024-01-30T01:57:33;0.30;99.90
20590;DHT22;10453;50.810;12.540;2024-01-30T02:01:50;0.40;99.90
20590;DHT22;10453;50.810;12.540;2024-01-30T02:06:09;0.30;99.90
20590;DHT22;10453;50.810;12.540;2024-01-30T02:10:26;0.30;99.90
20590;DHT22;10453;50.810;12.540;2024-01-30T02:14:47;0.20;99.90
20590;DHT22;10453;50.810;12.540;2024-01-30T02:19:04;0.20;99.90
20590;DHT22;10453;50.810;12.540;2024-01-30T02:23:24;0.20;99.90
20590;DHT22;10453;50.810;12.540;2024-01-30T02:27:44;0.20;99.90
20590;DHT22;10453;50.810;12.540;2024-01-30T02:32:01;0.20;99.90
20590;DHT22;10453;50.810;12.540;2024-01-30T02:36:19;0.40;99.90
20590;DHT22;10453;50.810;12.540;2024-01-30T02:40:44;0.30;99.90
20590;DHT22;10453;50.810;12.540;2024-01-30T02:45:01;0.20;99.90
20590;DHT22;10453;50.810;12.540;2024-01-30T02:49:19;0.20;99.90
20590;DHT22;10453;50.810;12.540;2024-01-30T02:53:36;0.10;99.90
20590;DHT22;10453;50.810;12.540;2024-01-30T02:57:53;0.00;99.90
20590;DHT22;10453;50.810;12.540;2024-01-30T03:02:11;-0.10;99.90
20590;DHT22;10453;50.810;12.540;2024-01-30T03:06:28;-0.20;99.90
20590;DHT22;10453;50.810;12.540;2024-01-30T03:10:46;-0.30;99.90
20590;DHT22;10453;50.810;12.540;2024-01-30T03:15:04;-0.30;99.90
20590;DHT22;10453;50.810;12.540;2024-01-30T03:19:22;-0.40;99.90
20590;DHT22;10453;50.810;12.540;2024-01-30T03:23:39;-0.40;99.90
20590;DHT22;10453;50.810;12.540;2024-01-30T03:27:57;-0.40;99.90
20590;DHT22;10453;50.810;12.540;2024-01-30T03:32:14;-0.50;99.90
20590;DHT22;10453;50.810;12.540;2024-01-30T03:36:31;-0.60;99.90
20590;DHT22;10453;50.810;12.540;2024-01-30T03:40:51;-0.60;99.90
20590;DHT22;10453;50.810;12.540;2024-01-30T03:45:08;-0.60;99.90
20590;DHT22;10453;50.810;12.540;2024-01-30T03:49:26;-0.70;99.90
20590;DHT22;10453;50.810;12.540;2024-01-30T03:53:44;-0.60;99.90
20590;DHT22;10453;50.810;12.540;2024-01-30T03:58:03;-0.60;99.90
20590;DHT22;10453;50.810;12.540;2024-01-30T04:02:20;-0.60;99.90
20590;DHT22;10453;50.810;12.540;2024-01-30T04:06:38;-0.70;99.90
20590;DHT22;10453;50.810;12.540;2024-01-30T04:10:55;-0.80;99.90
20590;DHT22;10453;50.810;12.540;2024-01-30T04:15:14;-0.70;99.90
20590;DHT22;10453;50.810;12.540;2024-01-30T04:19:31;-0.80;99.90
20590;DHT22;10453;50.810;12.540;2024-01-30T04:23:51;-0.80;99.90
20590;DHT22;10453;50.810;12.540;2024-01-30T04:28:08;-0.80;99.90
20590;DHT22;10453;50.810;12.540;2024-01-30T04:32:26;-0.80;99.90
20590;DHT22;10453;50.810;12.540;2024-01-30T04:36:46;-0.70;99.90
20590;DHT22;10453;50.810;12.540;2024-01-30T04:41:04;-0.70;99.90
20590;DHT22;10453;50.810;12.540;2024-01-30T04:45:21;-0.70;99.90
20590;DHT22;10453;50.810;12.540;2024-01-30T04:49:39;-0.60;99.90
20590;DHT22;10453;50.810;12.540;2024-01-30T04:53:57;-0.70;99.90
20590;DHT22;10453;50.810;12.540;2024-01-30T04:58:14;-0.70;99.90
20590;DHT22;10453;50.810;12.540;2024-01-30T05:02:31;-0.70;99.90
20590;DHT22;10453;50.810;12.540;2024-01-30T05:06:49;-0.80;99.90
20590;DHT22;10453;50.810;12.540;2024-01-30T05:11:06;-0.80;99.90
20590;DHT22;10453;50.810;12.540;2024-01-30T05:15:23;-0.80;99.90
20590;DHT22;10453;50.810;12.540;2024-01-30T05:19:40;-0.70;99.90
20590;DHT22;10453;50.810;12.540;2024-01-30T05:23:58;-0.70;99.90
20590;DHT22;10453;50.810;12.540;2024-01-30T05:28:15;-0.70;99.90
20590;DHT22;10453;50.810;12.540;2024-01-30T05:32:33;-0.80;99.90
20590;DHT22;10453;50.810;12.540;2024-01-30T05:36:50;-0.90;99.90
20590;DHT22;10453;50.810;12.540;2024-01-30T05:41:08;-0.90;99.90
20590;DHT22;10453;50.810;12.540;2024-01-30T05:45:26;-0.90;99.90
20590;DHT22;10453;50.810;12.540;2024-01-30T05:49:44;-0.80;99.90
20590;DHT22;10453;50.810;12.540;2024-01-30T05:54:01;-0.70;99.90
20590;DHT22;10453;50.810;12.540;2024-01-30T05:58:20;-0.70;99.90
20590;DHT22;10453;50.810;12.540;2024-01-30T06:02:39;-0.70;99.90
20590;DHT22;10453;50.810;12.540;2024-01-30T06:06:56;-0.70;99.90
20590;DHT22;10453;50.810;12.540;2024-01-30T06:11:13;-0.80;99.90
20590;DHT22;10453;50.810;12.540;2024-01-30T06:15:31;-0.70;99.90
20590;DHT22;10453;50.810;12.540;2024-01-30T06:19:50;-0.70;99.90
20590;DHT22;10453;50.810;12.540;2024-01-30T06:24:07;-0.40;99.90
20590;DHT22;10453;50.810;12.540;2024-01-30T06:28:25;-0.30;99.90
20590;DHT22;10453;50.810;12.540;2024-01-30T06:32:42;-0.30;99.90
20590;DHT22;10453;50.810;12.540;2024-01-30T06:36:59;-0.10;99.90
20590;DHT22;10453;50.810;12.540;2024-01-30T06:41:16;-0.10;99.90
20590;DHT22;10453;50.810;12.540;2024-01-30T06:45:35;-0.10;99.90
20590;DHT22;10453;50.810;12.540;2024-01-30T06:49:52;-0.10;99.90
20590;DHT22;10453;50.810;12.540;2024-01-30T06:54:10;-0.10;99.90
20590;DHT22;10453;50.810;12.540;2024-01-30T06:58:27;-0.10;99.90
20590;DHT22;10453;50.810;12.540;2024-01-30T07:02:45;-0.10;99.90
20590;DHT22;10453;50.810;12.540;2024-01-30T07:07:03;-0.10;99.90
20590;DHT22;10453;50.810;12.540;2024-01-30T07:11:22;-0.10;99.90
20590;DHT22;10453;50.810;12.540;2024-01-30T07:15:40;0.30;99.90
20590;DHT22;10453;50.810;12.540;2024-01-30T07:19:58;0.70;99.90
20590;DHT22;10453;50.810;12.540;2024-01-30T07:24:16;1.00;99.90
20590;DHT22;10453;50.810;12.540;2024-01-30T07:28:34;1.30;99.90
20590;DHT22;10453;50.810;12.540;2024-01-30T07:32:51;1.50;99.90
20590;DHT22;10453;50.810;12.540;2024-01-30T07:37:09;1.70;99.90
20590;DHT22;10453;50.810;12.540;2024-01-30T07:41:28;1.90;99.90
20590;DHT22;10453;50.810;12.540;2024-01-30T07:45:45;2.20;99.90
20590;DHT22;10453;50.810;12.540;2024-01-30T07:50:02;2.60;99.90
20590;DHT22;10453;50.810;12.540;2024-01-30T07:54:20;2.90;99.90
20590;DHT22;10453;50.810;12.540;2024-01-30T07:58:37;3.10;99.90
20590;DHT22;10453;50.810;12.540;2024-01-30T08:02:55;3.30;99.90
20590;DHT22;10453;50.810;12.540;2024-01-30T08:07:12;3.50;99.90
20590;DHT22;10453;50.810;12.540;2024-01-30T08:11:30;3.50;99.90
20590;DHT22;10453;50.810;12.540;2024-01-30T08:15:48;3.50;99.90
20590;DHT22;10453;50.810;12.540;2024-01-30T08:20:06;3.70;99.90
20590;DHT22;10453;50.810;12.540;2024-01-30T08:24:25;3.80;99.90
20590;DHT22;10453;50.810;12.540;2024-01-30T08:28:42;4.10;99.90
20590;DHT22;10453;50.810;12.540;2024-01-30T08:33:00;4.30;99.90
20590;DHT22;10453;50.810;12.540;2024-01-30T08:37:17;4.50;99.90
20590;DHT22;10453;50.810;12.540;2024-01-30T08:41:34;4.70;99.90
20590;DHT22;10453;50.810;12.540;2024-01-30T08:45:52;4.90;99.90
20590;DHT22;10453;50.810;12.540;2024-01-30T08:50:09;5.20;99.90
20590;DHT22;10453;50.810;12.540;2024-01-30T08:54:27;5.50;99.90
20590;DHT22;10453;50.810;12.540;2024-01-30T08:58:44;6.00;99.90
20590;DHT22;10453;50.810;12.540;2024-01-30T09:03:02;6.40;99.90
20590;DHT22;10453;50.810;12.540;2024-01-30T09:07:19;6.60;99.90
20590;DHT22;10453;50.810;12.540;2024-01-30T09:11:37;6.70;99.90
20590;DHT22;10453;50.810;12.540;2024-01-30T09:15:54;6.80;99.90
20590;DHT22;10453;50.810;12.540;2024-01-30T09:20:13;6.90;99.90
20590;DHT22;10453;50.810;12.540;2024-01-30T09:24:30;7.20;99.90
20590;DHT22;10453;50.810;12.540;2024-01-30T09:28:47;7.40;99.90
20590;DHT22;10453;50.810;12.540;2024-01-30T09:33:06;7.70;99.90
20590;DHT22;10453;50.810;12.540;2024-01-30T09:37:23;8.00;99.90
20590;DHT22;10453;50.810;12.540;2024-01-30T09:41:48;8.40;99.90
20590;DHT22;10453;50.810;12.540;2024-01-30T09:46:09;8.60;99.90
20590;DHT22;10453;50.810;12.540;2024-01-30T09:50:29;8.90;99.90
20590;DHT22;10453;50.810;12.540;2024-01-30T09:54:48;8.90;99.90
20590;DHT22;10453;50.810;12.540;2024-01-30T09:59:06;9.20;99.90
20590;DHT22;10453;50.810;12.540;2024-01-30T10:03:24;9.40;99.90
20590;DHT22;10453;50.810;12.540;2024-01-30T10:07:52;9.60;99.90
20590;DHT22;10453;50.810;12.540;2024-01-30T10:12:09;9.80;99.90
20590;DHT22;10453;50.810;12.540;2024-01-30T10:16:27;10.00;99.90
20590;DHT22;10453;50.810;12.540;2024-01-30T10:20:46;10.10;99.90
20590;DHT22;10453;50.810;12.540;2024-01-30T10:25:03;10.20;99.20
20590;DHT22;10453;50.810;12.540;2024-01-30T10:29:23;10.40;97.90
20590;DHT22;10453;50.810;12.540;2024-01-30T10:33:40;10.50;96.10
20590;DHT22;10453;50.810;12.540;2024-01-30T10:37:57;10.50;99.00
20590;DHT22;10453;50.810;12.540;2024-01-30T10:42:17;10.30;97.30
20590;DHT22;10453;50.810;12.540;2024-01-30T10:46:39;10.10;99.80
20590;DHT22;10453;50.810;12.540;2024-01-30T10:50:59;10.00;99.90
20590;DHT22;10453;50.810;12.540;2024-01-30T10:55:18;10.10;99.90
20590;DHT22;10453;50.810;12.540;2024-01-30T10:59:36;10.50;99.90
20590;DHT22;10453;50.810;12.540;2024-01-30T11:03:55;10.00;99.90
20590;DHT22;10453;50.810;12.540;2024-01-30T11:08:13;9.90;99.90
20590;DHT22;10453;50.810;12.540;2024-01-30T11:12:32;10.10;99.90
20590;DHT22;10453;50.810;12.540;2024-01-30T11:16:52;10.20;99.90
20590;DHT22;10453;50.810;12.540;2024-01-30T11:21:13;10.50;99.90
20590;DHT22;10453;50.810;12.540;2024-01-30T11:25:31;10.50;99.90
20590;DHT22;10453;50.810;12.540;2024-01-30T11:29:50;10.50;99.90
20590;DHT22;10453;50.810;12.540;2024-01-30T11:34:10;10.50;99.90
20590;DHT22;10453;50.810;12.540;2024-01-30T11:38:29;10.30;99.90
20590;DHT22;10453;50.810;12.540;2024-01-30T11:42:48;10.20;99.90
20590;DHT22;10453;50.810;12.540;2024-01-30T11:47:06;10.20;99.90
20590;DHT22;10453;50.810;12.540;2024-01-30T11:51:23;10.20;99.90
20590;DHT22;10453;50.810;12.540;2024-01-30T11:55:41;10.20;99.90
20590;DHT22;10453;50.810;12.540;2024-01-30T12:00:00;10.30;99.90
20590;DHT22;10453;50.810;12.540;2024-01-30T12:04:18;10.30;99.90
20590;DHT22;10453;50.810;12.540;2024-01-30T12:08:36;10.40;99.90
20590;DHT22;10453;50.810;12.540;2024-01-30T12:12:53;10.50;99.90
20590;DHT22;10453;50.810;12.540;2024-01-30T12:17:30;10.50;99.90
20590;DHT22;10453;50.810;12.540;2024-01-30T12:21:53;10.40;99.90
20590;DHT22;10453;50.810;12.540;2024-01-30T12:26:13;10.30;99.90
20590;DHT22;10453;50.810;12.540;2024-01-30T12:30:31;10.50;99.90
20590;DHT22;10453;50.810;12.540;2024-01-30T12:34:48;10.60;99.90
20590;DHT22;10453;50.810;12.540;2024-01-30T12:39:17;10.80;99.90
20590;DHT22;10453;50.810;12.540;2024-01-30T12:43:34;10.90;99.90
20590;DHT22;10453;50.810;12.540;2024-01-30T12:47:55;10.80;99.90
20590;DHT22;10453;50.810;12.540;2024-01-30T12:52:15;11.00;99.90
20590;DHT22;10453;50.810;12.540;2024-01-30T12:56:32;11.10;99.90
20590;DHT22;10453;50.810;12.540;2024-01-30T13:00:50;11.30;99.90
20590;DHT22;10453;50.810;12.540;2024-01-30T13:05:08;11.00;99.90
20590;DHT22;10453;50.810;12.540;2024-01-30T13:09:25;11.00;99.90
20590;DHT22;10453;50.810;12.540;2024-01-30T13:13:42;10.80;99.90
20590;DHT22;10453;50.810;12.540;2024-01-30T13:18:00;10.80;99.90
20590;DHT22;10453;50.810;12.540;2024-01-30T13:22:17;10.50;99.90
20590;DHT22;10453;50.810;12.540;2024-01-30T13:26:36;10.60;99.90
20590;DHT22;10453;50.810;12.540;2024-01-30T13:30:53;10.60;99.90
20590;DHT22;10453;50.810;12.540;2024-01-30T13:35:11;10.40;99.90
20590;DHT22;10453;50.810;12.540;2024-01-30T13:39:28;10.50;99.90
20590;DHT22;10453;50.810;12.540;2024-01-30T13:43:52;11.10;99.90
20590;DHT22;10453;50.810;12.540;2024-01-30T13:48:10;10.40;99.90
20590;DHT22;10453;50.810;12.540;2024-01-30T13:52:28;10.50;99.90
20590;DHT22;10453;50.810;12.540;2024-01-30T13:56:54;10.50;99.90
20590;DHT22;10453;50.810;12.540;2024-01-30T14:01:11;10.50;99.90
20590;DHT22;10453;50.810;12.540;2024-01-30T14:05:29;10.50;99.90
20590;DHT22;10453;50.810;12.540;2024-01-30T14:09:48;10.60;99.90
20590;DHT22;10453;50.810;12.540;2024-01-30T14:14:05;10.40;99.90
20590;DHT22;10453;50.810;12.540;2024-01-30T14:18:23;10.40;99.90
20590;DHT22;10453;50.810;12.540;2024-01-30T14:22:40;10.50;99.90
20590;DHT22;10453;50.810;12.540;2024-01-30T14:26:58;10.40;99.90
20590;DHT22;10453;50.810;12.540;2024-01-30T14:31:16;10.40;99.90
20590;DHT22;10453;50.810;12.540;2024-01-30T14:35:36;10.40;99.90
20590;DHT22;10453;50.810;12.540;2024-01-30T14:39:53;10.20;99.90
20590;DHT22;10453;50.810;12.540;2024-01-30T14:44:11;10.00;99.90
20590;DHT22;10453;50.810;12.540;2024-01-30T14:48:28;9.90;99.90
20590;DHT22;10453;50.810;12.540;2024-01-30T14:52:46;9.70;99.90
20590;DHT22;10453;50.810;12.540;2024-01-30T14:57:04;9.50;99.90
20590;DHT22;10453;50.810;12.540;2024-01-30T15:01:21;9.40;99.90
20590;DHT22;10453;50.810;12.540;2024-01-30T15:05:40;9.40;99.90
20590;DHT22;10453;50.810;12.540;2024-01-30T15:09:57;9.30;99.90
20590;DHT22;10453;50.810;12.540;2024-01-30T15:14:16;9.20;99.90
20590;DHT22;10453;50.810;12.540;2024-01-30T15:18:34;9.20;99.90
20590;DHT22;10453;50.810;12.540;2024-01-30T15:22:51;9.10;99.90
20590;DHT22;10453;50.810;12.540;2024-01-30T15:27:09;9.00;99.90
20590;DHT22;10453;50.810;12.540;2024-01-30T15:31:27;9.00;99.90
20590;DHT22;10453;50.810;12.540;2024-01-30T15:35:44;8.90;99.90
20590;DHT22;10453;50.810;12.540;2024-01-30T15:40:02;8.80;99.90
20590;DHT22;10453;50.810;12.540;2024-01-30T15:44:20;8.80;99.90
20590;DHT22;10453;50.810;12.540;2024-01-30T15:48:38;8.70;99.90
20590;DHT22;10453;50.810;12.540;2024-01-30T15:52:56;8.80;99.90
20590;DHT22;10453;50.810;12.540;2024-01-30T15:57:13;8.70;99.90
20590;DHT22;10453;50.810;12.540;2024-01-30T16:01:31;8.60;99.90
20590;DHT22;10453;50.810;12.540;2024-01-30T16:05:49;8.40;99.90
20590;DHT22;10453;50.810;12.540;2024-01-30T16:10:07;8.40;99.90
20590;DHT22;10453;50.810;12.540;2024-01-30T16:14:24;8.40;99.90
20590;DHT22;10453;50.810;12.540;2024-01-30T16:18:42;8.30;99.90
20590;DHT22;10453;50.810;12.540;2024-01-30T16:22:59;8.30;99.90
20590;DHT22;10453;50.810;12.540;2024-01-30T16:27:16;8.20;99.90
20590;DHT22;10453;50.810;12.540;2024-01-30T16:31:35;8.10;99.90
20590;DHT22;10453;50.810;12.540;2024-01-30T16:35:53;8.10;99.90
20590;DHT22;10453;50.810;12.540;2024-01-30T16:40:10;8.10;99.90
20590;DHT22;10453;50.810;12.540;2024-01-30T16:44:28;8.20;99.90
20590;DHT22;10453;50.810;12.540;2024-01-30T16:48:48;8.20;99.90
20590;DHT22;10453;50.810;12.540;2024-01-30T16:53:07;8.20;99.90
20590;DHT22;10453;50.810;12.540;2024-01-30T16:57:24;8.10;99.90
20590;DHT22;10453;50.810;12.540;2024-01-30T17:01:42;8.30;99.90
20590;DHT22;10453;50.810;12.540;2024-01-30T17:06:01;8.20;99.90
20590;DHT22;10453;50.810;12.540;2024-01-30T17:10:22;8.10;99.90
20590;DHT22;10453;50.810;12.540;2024-01-30T17:14:39;8.10;99.90
20590;DHT22;10453;50.810;12.540;2024-01-30T17:18:59;8.10;99.90
20590;DHT22;10453;50.810;12.540;2024-01-30T17:23:16;8.20;99.90
20590;DHT22;10453;50.810;12.540;2024-01-30T17:27:33;8.10;99.90
20590;DHT22;10453;50.810;12.540;2024-01-30T17:31:51;8.20;99.90
20590;DHT22;10453;50.810;12.540;2024-01-30T17:36:08;8.10;99.90
20590;DHT22;10453;50.810;12.540;2024-01-30T17:40:25;7.90;99.90
20590;DHT22;10453;50.810;12.540;2024-01-30T17:44:43;7.90;99.90
20590;DHT22;10453;50.810;12.540;2024-01-30T17:49:00;7.90;99.90
20590;DHT22;10453;50.810;12.540;2024-01-30T17:53:17;7.90;99.90
20590;DHT22;10453;50.810;12.540;2024-01-30T17:57:34;7.90;99.90
20590;DHT22;10453;50.810;12.540;2024-01-30T18:01:52;7.80;99.90
20590;DHT22;10453;50.810;12.540;2024-01-30T18:06:13;7.80;99.90
20590;DHT22;10453;50.810;12.540;2024-01-30T18:10:31;8.00;99.90
20590;DHT22;10453;50.810;12.540;2024-01-30T18:14:49;7.90;99.90
20590;DHT22;10453;50.810;12.540;2024-01-30T18:19:06;7.90;99.90
20590;DHT22;10453;50.810;12.540;2024-01-30T18:23:24;7.90;99.90
20590;DHT22;10453;50.810;12.540;2024-01-30T18:27:41;7.90;99.90
20590;DHT22;10453;50.810;12.540;2024-01-30T18:32:00;7.80;99.90
20590;DHT22;10453;50.810;12.540;2024-01-30T18:36:18;7.70;99.90
20590;DHT22;10453;50.810;12.540;2024-01-30T18:40:36;7.70;99.90
20590;DHT22;10453;50.810;12.540;2024-01-30T18:44:53;7.70;99.90
20590;DHT22;10453;50.810;12.540;2024-01-30T18:49:11;7.80;99.90
20590;DHT22;10453;50.810;12.540;2024-01-30T18:53:28;7.70;99.90
20590;DHT22;10453;50.810;12.540;2024-01-30T18:57:46;7.70;99.90
20590;DHT22;10453;50.810;12.540;2024-01-30T19:02:03;7.70;99.90
20590;DHT22;10453;50.810;12.540;2024-01-30T19:06:21;7.90;99.90
20590;DHT22;10453;50.810;12.540;2024-01-30T19:10:39;7.60;99.90
20590;DHT22;10453;50.810;12.540;2024-01-30T19:15:00;7.60;99.90
20590;DHT22;10453;50.810;12.540;2024-01-30T19:19:19;7.60;99.90
20590;DHT22;10453;50.810;12.540;2024-01-30T19:23:38;7.60;99.90
20590;DHT22;10453;50.810;12.540;2024-01-30T19:27:56;7.60;99.90
20590;DHT22;10453;50.810;12.540;2024-01-30T19:32:16;7.70;99.90
20590;DHT22;10453;50.810;12.540;2024-01-30T19:36:34;7.60;99.90
20590;DHT22;10453;50.810;12.540;2024-01-30T19:40:53;7.70;99.90
20590;DHT22;10453;50.810;12.540;2024-01-30T19:45:10;7.70;99.90
20590;DHT22;10453;50.810;12.540;2024-01-30T19:49:29;7.60;99.90
20590;DHT22;10453;50.810;12.540;2024-01-30T19:53:48;7.50;99.90
20590;DHT22;10453;50.810;12.540;2024-01-30T19:58:06;7.50;99.90
20590;DHT22;10453;50.810;12.540;2024-01-30T20:02:23;7.40;99.90
20590;DHT22;10453;50.810;12.540;2024-01-30T20:06:42;7.40;99.90
20590;DHT22;10453;50.810;12.540;2024-01-30T20:11:00;7.40;99.90
20590;DHT22;10453;50.810;12.540;2024-01-30T20:15:20;7.40;99.90
20590;DHT22;10453;50.810;12.540;2024-01-30T20:19:37;7.40;99.90
20590;DHT22;10453;50.810;12.540;2024-01-30T20:23:57;7.40;99.90
20590;DHT22;10453;50.810;12.540;2024-01-30T20:28:15;7.40;99.90
20590;DHT22;10453;50.810;12.540;2024-01-30T20:32:33;7.40;99.90
20590;DHT22;10453;50.810;12.540;2024-01-30T20:36:51;7.40;99.90
20590;DHT22;10453;50.810;12.540;2024-01-30T20:41:10;7.40;99.90
20590;DHT22;10453;50.810;12.540;2024-01-30T20:45:28;7.40;99.90
20590;DHT22;10453;50.810;12.540;2024-01-30T20:49:45;7.30;99.90
20590;DHT22;10453;50.810;12.540;2024-01-30T20:54:03;7.30;99.90
20590;DHT22;10453;50.810;12.540;2024-01-30T20:58:20;7.20;99.90
20590;DHT22;10453;50.810;12.540;2024-01-30T21:02:38;7.20;99.90
20590;DHT22;10453;50.810;12.540;2024-01-30T21:06:56;7.00;99.90
20590;DHT22;10453;50.810;12.540;2024-01-30T21:11:16;6.90;99.90
20590;DHT22;10453;50.810;12.540;2024-01-30T21:15:38;7.00;99.90
20590;DHT22;10453;50.810;12.540;2024-01-30T21:19:55;7.00;99.90
20590;DHT22;10453;50.810;12.540;2024-01-30T21:24:12;7.00;99.90
20590;DHT22;10453;50.810;12.540;2024-01-30T21:28:30;6.90;99.90
20590;DHT22;10453;50.810;12.540;2024-01-30T21:32:47;6.80;99.90
20590;DHT22;10453;50.810;12.540;2024-01-30T21:37:05;6.90;99.90
20590;DHT22;10453;50.810;12.540;2024-01-30T21:41:22;7.00;99.90
20590;DHT22;10453;50.810;12.540;2024-01-30T21:45:39;7.10;99.90
20590;DHT22;10453;50.810;12.540;2024-01-30T21:49:57;7.30;99.90
20590;DHT22;10453;50.810;12.540;2024-01-30T21:54:14;7.40;99.90
20590;DHT22;10453;50.810;12.540;2024-01-30T21:58:31;7.40;99.90
20590;DHT22;10453;50.810;12.540;2024-01-30T22:02:49;7.40;99.90
20590;DHT22;10453;50.810;12.540;2024-01-30T22:07:06;7.40;99.90
20590;DHT22;10453;50.810;12.540;2024-01-30T22:11:24;7.50;99.90
20590;DHT22;10453;50.810;12.540;2024-01-30T22:15:41;7.40;99.90
20590;DHT22;10453;50.810;12.540;2024-01-30T22:19:59;7.50;99.90
20590;DHT22;10453;50.810;12.540;2024-01-30T22:24:16;7.50;99.90
20590;DHT22;10453;50.810;12.540;2024-01-30T22:28:33;7.60;99.90
20590;DHT22;10453;50.810;12.540;2024-01-30T22:32:51;7.50;99.90
20590;DHT22;10453;50.810;12.540;2024-01-30T22:37:09;7.50;99.90
20590;DHT22;10453;50.810;12.540;2024-01-30T22:41:27;7.60;99.90
20590;DHT22;10453;50.810;12.540;2024-01-30T22:45:45;7.60;99.90
20590;DHT22;10453;50.810;12.540;2024-01-30T22:50:02;7.50;99.90
20590;DHT22;10453;50.810;12.540;2024-01-30T22:54:21;7.50;99.90
20590;DHT22;10453;50.810;12.540;2024-01-30T22:58:38;7.50;99.90
20590;DHT22;10453;50.810;12.540;2024-01-30T23:02:56;7.50;99.90
20590;DHT22;10453;50.810;12.540;2024-01-30T23:07:14;7.40;99.90
20590;DHT22;10453;50.810;12.540;2024-01-30T23:11:33;7.50;99.90
20590;DHT22;10453;50.810;12.540;2024-01-30T23:15:51;7.50;99.90
20590;DHT22;10453;50.810;12.540;2024-01-30T23:20:09;7.40;99.90
20590;DHT22;10453;50.810;12.540;2024-01-30T23:24:27;7.40;99.90
20590;DHT22;10453;50.810;12.540;2024-01-30T23:28:44;7.30;99.90
20590;DHT22;10453;50.810;12.540;2024-01-30T23:33:01;7.30;99.90
20590;DHT22;10453;50.810;12.540;2024-01-30T23:37:18;7.40;99.90
20590;DHT22;10453;50.810;12.540;2024-01-30T23:41:36;7.40;99.90
20590;DHT22;10453;50.810;12.540;2024-01-30T23:45:53;7.50;99.90
20590;DHT22;10453;50.810;12.540;2024-01-30T23:50:11;7.50;99.90
20590;DHT22;10453;50.810;12.540;2024-01-30T23:54:29;7.50;99.90
20590;DHT22;10453;50.810;12.540;2024-01-30T23:58:46;7.50;99.90
